Latest Weather Observations for Banana Bank

IDQ60801

Issued at 8:32 am EST Thursday 2 April 2015 (issued every 30 minutes, with the page automatically refreshed every 10 minutes)

About weather observations | Map of weather stations | Latest weather observations for QLD | Other Formats
Station Details ID: 040925 Name: BANANA BANK NORTH BEACON Lat: -27.53 Lon: 153.33 Height: 7.0 m
Data from the previous 72 hours. | See also: Recent months for locations in Queensland
Date/Time
EST
Temp
°C
App
Temp
°C
Dew
Point
Rel
Hum
%
Delta-T
°C
Wind Press
QNH
hPa
Press
MSL
hPa
Rain
since 9 am
mm
Dir
 
Spd
km/h
Gust
km/h
Spd
kts
Gust
kts
02/08:30am - - - - - E 22 30 12 16 - - -
02/08:00am - - - - - ESE 22 28 12 15 - - -
02/07:30am - - - - - E 19 24 10 13 - - -
02/07:00am - - - - - E 20 24 11 13 - - -
02/06:30am - - - - - SE 9 15 5 8 - - -
02/06:00am - - - - - S 13 17 7 9 - - -
02/05:30am - - - - - SSW 15 17 8 9 - - -
02/05:00am - - - - - SSW 15 17 8 9 - - -
02/04:30am - - - - - SSW 17 19 9 10 - - -
02/04:00am - - - - - SSW 19 22 10 12 - - -
02/03:30am - - - - - SSW 17 22 9 12 - - -
02/03:00am - - - - - SW 19 22 10 12 - - -
02/02:30am - - - - - SW 19 22 10 12 - - -
02/02:00am - - - - - SSW 9 17 5 9 - - -
02/01:30am - - - - - NE 6 7 3 4 - - -
02/01:00am - - - - - ESE 19 30 10 16 - - -
02/12:30am - - - - - E 22 26 12 14 - - -
02/12:00am - - - - - E 17 22 9 12 - - -
 
Date/Time
EST
Temp
°C
App
Temp
°C
Dew
Point
Rel
Hum
%
Delta-T
°C
Wind Press
QNH
hPa
Press
MSL
hPa
Rain
since 9 am
mm
Dir
 
Spd
km/h
Gust
km/h
Spd
kts
Gust
kts
01/11:30pm - - - - - ESE 15 19 8 10 - - -
01/11:00pm - - - - - E 19 22 10 12 - - -
01/10:30pm - - - - - ENE 22 32 12 17 - - -
01/10:00pm - - - - - ESE 20 26 11 14 - - -
01/09:30pm - - - - - SE 24 28 13 15 - - -
01/09:00pm - - - - - ESE 28 33 15 18 - - -
01/08:30pm - - - - - ESE 24 30 13 16 - - -
01/08:00pm - - - - - SE 15 22 8 12 - - -
01/07:30pm - - - - - ESE 24 32 13 17 - - -
01/07:00pm - - - - - ESE 28 33 15 18 - - -
01/06:30pm - - - - - ESE 22 28 12 15 - - -
01/06:00pm - - - - - SE 24 28 13 15 - - -
01/05:30pm - - - - - SE 26 32 14 17 - - -
01/05:00pm - - - - - ESE 26 32 14 17 - - -
01/04:30pm - - - - - ESE 28 33 15 18 - - -
01/04:00pm - - - - - ESE 30 37 16 20 - - -
01/03:30pm - - - - - ESE 30 35 16 19 - - -
01/03:00pm - - - - - ESE 32 37 17 20 - - -
01/02:30pm - - - - - ESE 32 37 17 20 - - -
01/02:00pm - - - - - ESE 26 30 14 16 - - -
01/01:30pm - - - - - ESE 22 30 12 16 - - -
01/01:00pm - - - - - ESE 22 30 12 16 - - -
01/12:30pm - - - - - ESE 24 30 13 16 - - -
01/12:00pm - - - - - ESE 24 30 13 16 - - -
01/11:30am - - - - - ESE 24 32 13 17 - - -
01/11:00am - - - - - ESE 26 32 14 17 - - -
01/10:30am - - - - - SSW 19 22 10 12 - - -
01/10:00am - - - - - SSW 22 26 12 14 - - -
01/09:30am - - - - - SSW 20 24 11 13 - - -
01/09:00am - - - - - SSW 26 32 14 17 - - -
01/08:30am - - - - - SSW 22 28 12 15 - - -
01/08:00am - - - - - SSW 26 30 14 16 - - -
01/07:30am - - - - - S 19 24 10 13 - - -
01/07:00am - - - - - SE 30 35 16 19 - - -
01/06:30am - - - - - SE 32 39 17 21 - - -
01/06:00am - - - - - SE 24 30 13 16 - - -
01/05:30am - - - - - ESE 24 32 13 17 - - -
01/05:00am - - - - - E 15 20 8 11 - - -
01/04:30am - - - - - E 28 35 15 19 - - -
01/04:00am - - - - - ENE 30 35 16 19 - - -
01/03:37am - - - - - SSE 26 43 14 23 - - -
01/03:30am - - - - - SSW 20 26 11 14 - - -
01/03:00am - - - - - NNW 7 20 4 11 - - -
01/02:30am - - - - - SE 6 9 3 5 - - -
01/02:00am - - - - - SSE 11 17 6 9 - - -
01/01:30am - - - - - ENE 7 15 4 8 - - -
01/01:00am - - - - - ENE 24 39 13 21 - - -
01/12:59am - - - - - ENE 22 39 12 21 - - -
01/12:30am - - - - - ENE 9 15 5 8 - - -
01/12:00am - - - - - ESE 7 11 4 6 - - -
 
Date/Time
EST
Temp
°C
App
Temp
°C
Dew
Point
Rel
Hum
%
Delta-T
°C
Wind Press
QNH
hPa
Press
MSL
hPa
Rain
since 9 am
mm
Dir
 
Spd
km/h
Gust
km/h
Spd
kts
Gust
kts
31/11:30pm - - - - - ENE 11 22 6 12 - - -
31/11:00pm - - - - - SSW 24 26 13 14 - - -
31/10:30pm - - - - - S 17 24 9 13 - - -
31/10:00pm - - - - - SE 24 39 13 21 - - -
31/09:30pm - - - - - S 20 24 11 13 - - -
31/09:00pm - - - - - SSE 19 22 10 12 - - -
31/08:30pm - - - - - SE 22 26 12 14 - - -
31/08:00pm - - - - - SE 24 33 13 18 - - -
31/07:30pm - - - - - SSE 30 43 16 23 - - -
31/07:29pm - - - - - SSE 28 43 15 23 - - -
31/07:00pm - - - - - S 17 22 9 12 - - -
31/06:30pm - - - - - SE 17 20 9 11 - - -
31/06:00pm - - - - - SE 13 20 7 11 - - -
31/05:30pm - - - - - S 19 22 10 12 - - -
31/05:00pm - - - - - S 24 28 13 15 - - -
31/04:30pm - - - - - S 24 28 13 15 - - -
31/04:00pm - - - - - SE 17 22 9 12 - - -
31/03:30pm - - - - - ESE 17 20 9 11 - - -
31/03:00pm - - - - - SE 28 32 15 17 - - -
31/02:30pm - - - - - ENE 15 20 8 11 - - -
31/02:00pm - - - - - E 15 19 8 10 - - -
31/01:30pm - - - - - E 13 15 7 8 - - -
31/01:00pm - - - - - E 13 19 7 10 - - -
31/12:30pm - - - - - E 13 17 7 9 - - -
31/12:00pm - - - - - ESE 7 11 4 6 - - -
31/11:30am - - - - - E 17 22 9 12 - - -
31/11:00am - - - - - S 11 15 6 8 - - -
31/10:30am - - - - - SSW 15 17 8 9 - - -
31/10:00am - - - - - S 13 17 7 9 - - -
31/09:30am - - - - - SSW 15 19 8 10 - - -
31/09:00am - - - - - SSW 15 17 8 9 - - -
31/08:30am - - - - - S 9 13 5 7 - - -
31/08:00am - - - - - S 11 13 6 7 - - -
31/07:30am - - - - - E 11 15 6 8 - - -
31/07:00am - - - - - E 11 15 6 8 - - -
31/06:30am - - - - - E 13 17 7 9 - - -
31/06:00am - - - - - SE 11 17 6 9 - - -
31/05:30am - - - - - SE 13 17 7 9 - - -
31/05:00am - - - - - E 11 15 6 8 - - -
31/04:30am - - - - - E 22 37 12 20 - - -
31/04:00am - - - - - S 17 19 9 10 - - -
31/03:30am - - - - - S 15 19 8 10 - - -
31/03:00am - - - - - SSW 15 17 8 9 - - -
31/02:30am - - - - - SSW 13 15 7 8 - - -
31/02:00am - - - - - S 11 15 6 8 - - -
31/01:30am - - - - - S 11 15 6 8 - - -
31/01:00am - - - - - S 9 13 5 7 - - -
31/12:30am - - - - - ESE 11 15 6 8 - - -
31/12:00am - - - - - ESE 13 15 7 8 - - -
 
Date/Time
EST
Temp
°C
App
Temp
°C
Dew
Point
Rel
Hum
%
Delta-T
°C
Wind Press
QNH
hPa
Press
MSL
hPa
Rain
since 9 am
mm
Dir
 
Spd
km/h
Gust
km/h
Spd
kts
Gust
kts
30/11:30pm - - - - - ESE 15 17 8 9 - - -
30/11:00pm - - - - - E 13 15 7 8 - - -
30/10:30pm - - - - - E 13 15 7 8 - - -
30/10:00pm - - - - - ESE 13 15 7 8 - - -
30/09:30pm - - - - - ESE 11 13 6 7 - - -
30/09:00pm - - - - - ESE 11 13 6 7 - - -
30/08:30pm - - - - - ESE 11 13 6 7 - - -
30/08:00pm - - - - - ESE 9 13 5 7 - - -
30/07:30pm - - - - - E 9 13 5 7 - - -
30/07:00pm - - - - - E 11 13 6 7 - - -
30/06:30pm - - - - - ESE 13 15 7 8 - - -
30/06:00pm - - - - - E 13 17 7 9 - - -
30/05:30pm - - - - - E 11 15 6 8 - - -
30/05:00pm - - - - - E 11 15 6 8 - - -
30/04:30pm - - - - - E 15 17 8 9 - - -
30/04:00pm - - - - - ENE 17 22 9 12 - - -
30/03:30pm - - - - - E 15 19 8 10 - - -
30/03:00pm - - - - - E 13 17 7 9 - - -
30/02:30pm - - - - - E 13 17 7 9 - - -
30/02:00pm - - - - - E 20 28 11 15 - - -
30/01:30pm - - - - - ENE 15 20 8 11 - - -
30/01:00pm - - - - - E 19 22 10 12 - - -
30/12:30pm - - - - - E 17 22 9 12 - - -
30/12:00pm - - - - - E 17 20 9 11 - - -
30/11:30am - - - - - E 13 17 7 9 - - -
30/11:00am - - - - - E 15 20 8 11 - - -
30/10:30am - - - - - ENE 13 17 7 9 - - -
30/10:00am - - - - - ENE 17 20 9 11 - - -
30/09:30am - - - - - ENE 17 20 9 11 - - -
30/09:00am - - - - - E 15 20 8 11 - - -

Other Formats:

Comma delimited format used in spreadsheet applications
http://www.bom.gov.au/fwo/IDQ60801/IDQ60801.94591.axf

JavaScript Object Notation format (JSON) in row-major order
http://www.bom.gov.au/fwo/IDQ60801/IDQ60801.94591.json